sensor_id;sensor_type;location;lat;lon;timestamp;P1;durP1;ratioP1;P2;durP2;ratioP2
56770;SDS011;42641;59.794;17.616;2023-05-10T00:00:29;7.47;;;3.60;;
56770;SDS011;42641;59.794;17.616;2023-05-10T00:02:55;5.40;;;4.00;;
56770;SDS011;42641;59.794;17.616;2023-05-10T00:05:22;5.07;;;3.67;;
56770;SDS011;42641;59.794;17.616;2023-05-10T00:07:48;4.20;;;3.70;;
56770;SDS011;42641;59.794;17.616;2023-05-10T00:10:15;4.87;;;3.60;;
56770;SDS011;42641;59.794;17.616;2023-05-10T00:12:41;5.13;;;3.60;;
56770;SDS011;42641;59.794;17.616;2023-05-10T00:15:08;6.40;;;3.70;;
56770;SDS011;42641;59.794;17.616;2023-05-10T00:17:35;5.40;;;3.97;;
56770;SDS011;42641;59.794;17.616;2023-05-10T00:20:01;5.23;;;4.17;;
56770;SDS011;42641;59.794;17.616;2023-05-10T00:22:30;6.00;;;4.07;;
56770;SDS011;42641;59.794;17.616;2023-05-10T00:24:57;4.97;;;4.00;;
56770;SDS011;42641;59.794;17.616;2023-05-10T00:27:24;4.97;;;3.67;;
56770;SDS011;42641;59.794;17.616;2023-05-10T00:29:51;6.67;;;4.00;;
56770;SDS011;42641;59.794;17.616;2023-05-10T00:32:17;5.27;;;3.70;;
56770;SDS011;42641;59.794;17.616;2023-05-10T00:34:44;4.33;;;3.77;;
56770;SDS011;42641;59.794;17.616;2023-05-10T00:37:11;7.77;;;4.23;;
56770;SDS011;42641;59.794;17.616;2023-05-10T00:39:38;6.30;;;3.73;;
56770;SDS011;42641;59.794;17.616;2023-05-10T00:42:04;8.60;;;4.10;;
56770;SDS011;42641;59.794;17.616;2023-05-10T00:44:31;5.70;;;4.10;;
56770;SDS011;42641;59.794;17.616;2023-05-10T00:46:57;5.27;;;4.03;;
56770;SDS011;42641;59.794;17.616;2023-05-10T00:49:25;4.67;;;3.83;;
56770;SDS011;42641;59.794;17.616;2023-05-10T00:51:51;8.33;;;4.50;;
56770;SDS011;42641;59.794;17.616;2023-05-10T00:54:18;10.00;;;4.53;;
56770;SDS011;42641;59.794;17.616;2023-05-10T00:56:44;4.10;;;3.70;;
56770;SDS011;42641;59.794;17.616;2023-05-10T00:59:17;4.70;;;3.97;;
56770;SDS011;42641;59.794;17.616;2023-05-10T01:01:44;6.10;;;4.37;;
56770;SDS011;42641;59.794;17.616;2023-05-10T01:04:12;4.43;;;4.03;;
56770;SDS011;42641;59.794;17.616;2023-05-10T01:06:39;5.77;;;4.50;;
56770;SDS011;42641;59.794;17.616;2023-05-10T01:09:07;5.83;;;3.90;;
56770;SDS011;42641;59.794;17.616;2023-05-10T01:11:37;7.73;;;4.13;;
56770;SDS011;42641;59.794;17.616;2023-05-10T01:14:05;6.90;;;4.43;;
56770;SDS011;42641;59.794;17.616;2023-05-10T01:16:33;6.57;;;4.30;;
56770;SDS011;42641;59.794;17.616;2023-05-10T01:19:03;7.17;;;5.00;;
56770;SDS011;42641;59.794;17.616;2023-05-10T01:38:27;6.87;;;4.97;;
56770;SDS011;42641;59.794;17.616;2023-05-10T01:43:37;6.23;;;5.37;;
56770;SDS011;42641;59.794;17.616;2023-05-10T01:46:33;9.17;;;5.40;;
56770;SDS011;42641;59.794;17.616;2023-05-10T01:49:09;6.10;;;5.10;;
56770;SDS011;42641;59.794;17.616;2023-05-10T01:51:58;7.37;;;5.10;;
56770;SDS011;42641;59.794;17.616;2023-05-10T01:54:29;6.27;;;5.20;;
56770;SDS011;42641;59.794;17.616;2023-05-10T01:57:00;7.13;;;5.23;;
56770;SDS011;42641;59.794;17.616;2023-05-10T01:59:33;9.10;;;5.60;;
56770;SDS011;42641;59.794;17.616;2023-05-10T02:02:02;7.33;;;5.30;;
56770;SDS011;42641;59.794;17.616;2023-05-10T02:04:31;9.17;;;5.70;;
56770;SDS011;42641;59.794;17.616;2023-05-10T02:07:00;7.40;;;5.40;;
56770;SDS011;42641;59.794;17.616;2023-05-10T02:09:28;7.47;;;5.83;;
56770;SDS011;42641;59.794;17.616;2023-05-10T02:11:58;7.83;;;5.57;;
56770;SDS011;42641;59.794;17.616;2023-05-10T02:14:28;7.07;;;5.00;;
56770;SDS011;42641;59.794;17.616;2023-05-10T02:16:58;9.97;;;5.37;;
56770;SDS011;42641;59.794;17.616;2023-05-10T02:19:27;8.20;;;5.27;;
56770;SDS011;42641;59.794;17.616;2023-05-10T02:21:56;8.17;;;5.97;;
56770;SDS011;42641;59.794;17.616;2023-05-10T02:24:25;7.47;;;5.37;;
56770;SDS011;42641;59.794;17.616;2023-05-10T02:26:53;8.83;;;5.30;;
56770;SDS011;42641;59.794;17.616;2023-05-10T02:29:24;7.20;;;5.27;;
56770;SDS011;42641;59.794;17.616;2023-05-10T02:31:52;7.23;;;5.47;;
56770;SDS011;42641;59.794;17.616;2023-05-10T02:34:20;7.33;;;5.13;;
56770;SDS011;42641;59.794;17.616;2023-05-10T02:36:49;6.00;;;5.10;;
56770;SDS011;42641;59.794;17.616;2023-05-10T02:39:18;9.63;;;5.67;;
56770;SDS011;42641;59.794;17.616;2023-05-10T02:41:46;6.20;;;5.33;;
56770;SDS011;42641;59.794;17.616;2023-05-10T02:44:15;8.17;;;5.73;;
56770;SDS011;42641;59.794;17.616;2023-05-10T02:46:44;6.97;;;5.37;;
56770;SDS011;42641;59.794;17.616;2023-05-10T02:49:11;8.40;;;5.33;;
56770;SDS011;42641;59.794;17.616;2023-05-10T02:51:40;9.27;;;5.80;;
56770;SDS011;42641;59.794;17.616;2023-05-10T02:54:15;5.83;;;5.13;;
56770;SDS011;42641;59.794;17.616;2023-05-10T02:56:47;9.27;;;6.07;;
56770;SDS011;42641;59.794;17.616;2023-05-10T02:59:18;5.87;;;5.00;;
56770;SDS011;42641;59.794;17.616;2023-05-10T03:01:45;7.77;;;5.10;;
56770;SDS011;42641;59.794;17.616;2023-05-10T03:04:12;6.87;;;5.40;;
56770;SDS011;42641;59.794;17.616;2023-05-10T03:06:39;5.93;;;5.20;;
56770;SDS011;42641;59.794;17.616;2023-05-10T03:09:06;8.70;;;5.50;;
56770;SDS011;42641;59.794;17.616;2023-05-10T03:11:50;6.90;;;5.60;;
56770;SDS011;42641;59.794;17.616;2023-05-10T03:16:56;7.57;;;5.07;;
56770;SDS011;42641;59.794;17.616;2023-05-10T03:19:31;7.87;;;5.40;;
56770;SDS011;42641;59.794;17.616;2023-05-10T03:22:04;6.30;;;5.27;;
56770;SDS011;42641;59.794;17.616;2023-05-10T03:24:36;7.33;;;5.37;;
56770;SDS011;42641;59.794;17.616;2023-05-10T03:27:06;6.53;;;5.20;;
56770;SDS011;42641;59.794;17.616;2023-05-10T03:29:34;6.13;;;5.33;;
56770;SDS011;42641;59.794;17.616;2023-05-10T03:32:02;8.13;;;4.87;;
56770;SDS011;42641;59.794;17.616;2023-05-10T03:34:30;7.43;;;5.17;;
56770;SDS011;42641;59.794;17.616;2023-05-10T03:36:57;8.17;;;5.40;;
56770;SDS011;42641;59.794;17.616;2023-05-10T03:39:26;8.40;;;4.93;;
56770;SDS011;42641;59.794;17.616;2023-05-10T03:41:56;8.27;;;5.13;;
56770;SDS011;42641;59.794;17.616;2023-05-10T03:44:23;6.93;;;6.07;;
56770;SDS011;42641;59.794;17.616;2023-05-10T03:46:52;7.07;;;4.83;;
56770;SDS011;42641;59.794;17.616;2023-05-10T03:49:18;7.00;;;5.17;;
56770;SDS011;42641;59.794;17.616;2023-05-10T03:51:45;6.17;;;5.07;;
56770;SDS011;42641;59.794;17.616;2023-05-10T03:54:11;5.83;;;4.50;;
56770;SDS011;42641;59.794;17.616;2023-05-10T03:56:38;9.70;;;5.50;;
56770;SDS011;42641;59.794;17.616;2023-05-10T03:59:05;7.97;;;4.53;;
56770;SDS011;42641;59.794;17.616;2023-05-10T04:01:33;6.80;;;4.90;;
56770;SDS011;42641;59.794;17.616;2023-05-10T04:04:00;5.77;;;4.47;;
56770;SDS011;42641;59.794;17.616;2023-05-10T04:06:26;5.67;;;4.23;;
56770;SDS011;42641;59.794;17.616;2023-05-10T04:08:54;6.83;;;5.07;;
56770;SDS011;42641;59.794;17.616;2023-05-10T04:11:21;5.37;;;4.80;;
56770;SDS011;42641;59.794;17.616;2023-05-10T04:13:50;6.60;;;5.17;;
56770;SDS011;42641;59.794;17.616;2023-05-10T04:16:17;6.73;;;4.80;;
56770;SDS011;42641;59.794;17.616;2023-05-10T04:18:43;7.77;;;4.37;;
56770;SDS011;42641;59.794;17.616;2023-05-10T04:21:12;5.87;;;4.73;;
56770;SDS011;42641;59.794;17.616;2023-05-10T04:23:40;5.70;;;4.43;;
56770;SDS011;42641;59.794;17.616;2023-05-10T04:26:06;6.70;;;4.70;;
56770;SDS011;42641;59.794;17.616;2023-05-10T04:28:33;5.57;;;4.83;;
56770;SDS011;42641;59.794;17.616;2023-05-10T04:31:03;10.60;;;4.83;;
56770;SDS011;42641;59.794;17.616;2023-05-10T04:33:31;6.70;;;5.20;;
56770;SDS011;42641;59.794;17.616;2023-05-10T04:35:59;7.20;;;5.20;;
56770;SDS011;42641;59.794;17.616;2023-05-10T04:38:25;7.37;;;4.37;;
56770;SDS011;42641;59.794;17.616;2023-05-10T04:40:52;6.47;;;4.87;;
56770;SDS011;42641;59.794;17.616;2023-05-10T04:43:19;6.17;;;4.97;;
56770;SDS011;42641;59.794;17.616;2023-05-10T04:45:46;5.37;;;4.50;;
56770;SDS011;42641;59.794;17.616;2023-05-10T04:48:12;5.93;;;4.83;;
56770;SDS011;42641;59.794;17.616;2023-05-10T04:50:39;5.83;;;4.53;;
56770;SDS011;42641;59.794;17.616;2023-05-10T04:53:05;6.60;;;4.33;;
56770;SDS011;42641;59.794;17.616;2023-05-10T04:55:32;6.93;;;4.67;;
56770;SDS011;42641;59.794;17.616;2023-05-10T04:57:58;7.40;;;4.20;;
56770;SDS011;42641;59.794;17.616;2023-05-10T05:00:25;4.70;;;4.20;;
56770;SDS011;42641;59.794;17.616;2023-05-10T05:02:51;5.37;;;4.60;;
56770;SDS011;42641;59.794;17.616;2023-05-10T05:05:18;6.97;;;4.40;;
56770;SDS011;42641;59.794;17.616;2023-05-10T05:07:44;6.20;;;4.87;;
56770;SDS011;42641;59.794;17.616;2023-05-10T05:10:10;8.30;;;4.53;;
56770;SDS011;42641;59.794;17.616;2023-05-10T05:12:37;5.97;;;4.60;;
56770;SDS011;42641;59.794;17.616;2023-05-10T05:15:03;5.13;;;3.93;;
56770;SDS011;42641;59.794;17.616;2023-05-10T05:17:30;4.20;;;3.80;;
56770;SDS011;42641;59.794;17.616;2023-05-10T05:19:57;5.50;;;4.30;;
56770;SDS011;42641;59.794;17.616;2023-05-10T05:22:23;8.93;;;4.17;;
56770;SDS011;42641;59.794;17.616;2023-05-10T05:24:53;4.83;;;4.10;;
56770;SDS011;42641;59.794;17.616;2023-05-10T05:27:20;6.07;;;4.10;;
56770;SDS011;42641;59.794;17.616;2023-05-10T05:29:50;5.57;;;4.00;;
56770;SDS011;42641;59.794;17.616;2023-05-10T05:32:18;4.83;;;4.27;;
56770;SDS011;42641;59.794;17.616;2023-05-10T05:34:45;4.00;;;3.60;;
56770;SDS011;42641;59.794;17.616;2023-05-10T05:37:12;4.20;;;3.80;;
56770;SDS011;42641;59.794;17.616;2023-05-10T05:39:43;8.23;;;4.40;;
56770;SDS011;42641;59.794;17.616;2023-05-10T05:42:10;6.07;;;4.23;;
56770;SDS011;42641;59.794;17.616;2023-05-10T05:44:38;7.27;;;4.23;;
56770;SDS011;42641;59.794;17.616;2023-05-10T05:47:05;5.60;;;4.30;;
56770;SDS011;42641;59.794;17.616;2023-05-10T05:49:32;5.83;;;3.93;;
56770;SDS011;42641;59.794;17.616;2023-05-10T05:52:02;5.00;;;3.90;;
56770;SDS011;42641;59.794;17.616;2023-05-10T05:54:29;6.43;;;4.17;;
56770;SDS011;42641;59.794;17.616;2023-05-10T05:56:57;4.33;;;3.93;;
56770;SDS011;42641;59.794;17.616;2023-05-10T05:59:24;5.60;;;3.87;;
56770;SDS011;42641;59.794;17.616;2023-05-10T06:01:51;5.53;;;4.00;;
56770;SDS011;42641;59.794;17.616;2023-05-10T06:04:18;5.43;;;3.73;;
56770;SDS011;42641;59.794;17.616;2023-05-10T06:06:45;5.57;;;4.13;;
56770;SDS011;42641;59.794;17.616;2023-05-10T06:09:12;4.10;;;3.80;;
56770;SDS011;42641;59.794;17.616;2023-05-10T06:11:38;5.97;;;4.30;;
56770;SDS011;42641;59.794;17.616;2023-05-10T06:14:05;5.17;;;4.00;;
56770;SDS011;42641;59.794;17.616;2023-05-10T06:16:35;4.83;;;3.80;;
56770;SDS011;42641;59.794;17.616;2023-05-10T06:19:02;5.07;;;3.87;;
56770;SDS011;42641;59.794;17.616;2023-05-10T06:21:29;5.30;;;3.70;;
56770;SDS011;42641;59.794;17.616;2023-05-10T06:23:56;6.60;;;3.73;;
56770;SDS011;42641;59.794;17.616;2023-05-10T06:26:22;6.10;;;3.60;;
56770;SDS011;42641;59.794;17.616;2023-05-10T06:28:49;9.33;;;3.90;;
56770;SDS011;42641;59.794;17.616;2023-05-10T06:31:15;6.00;;;3.80;;
56770;SDS011;42641;59.794;17.616;2023-05-10T06:33:42;5.37;;;3.67;;
56770;SDS011;42641;59.794;17.616;2023-05-10T06:36:08;6.90;;;3.73;;
56770;SDS011;42641;59.794;17.616;2023-05-10T06:38:35;6.33;;;3.60;;
56770;SDS011;42641;59.794;17.616;2023-05-10T06:41:01;7.27;;;3.20;;
56770;SDS011;42641;59.794;17.616;2023-05-10T06:43:28;4.83;;;3.50;;
56770;SDS011;42641;59.794;17.616;2023-05-10T06:45:54;3.77;;;3.30;;
56770;SDS011;42641;59.794;17.616;2023-05-10T06:48:21;4.63;;;3.57;;
56770;SDS011;42641;59.794;17.616;2023-05-10T06:50:47;5.40;;;3.33;;
56770;SDS011;42641;59.794;17.616;2023-05-10T06:53:14;6.80;;;3.57;;
56770;SDS011;42641;59.794;17.616;2023-05-10T06:55:41;5.67;;;3.40;;
56770;SDS011;42641;59.794;17.616;2023-05-10T06:58:07;5.03;;;3.67;;
56770;SDS011;42641;59.794;17.616;2023-05-10T07:00:33;5.40;;;3.70;;
56770;SDS011;42641;59.794;17.616;2023-05-10T07:03:00;4.97;;;3.33;;
56770;SDS011;42641;59.794;17.616;2023-05-10T07:05:26;6.30;;;3.70;;
56770;SDS011;42641;59.794;17.616;2023-05-10T07:07:53;4.93;;;3.80;;
56770;SDS011;42641;59.794;17.616;2023-05-10T07:10:20;7.80;;;3.23;;
56770;SDS011;42641;59.794;17.616;2023-05-10T07:12:46;7.57;;;3.63;;
56770;SDS011;42641;59.794;17.616;2023-05-10T07:15:12;4.43;;;3.53;;
56770;SDS011;42641;59.794;17.616;2023-05-10T07:17:39;3.60;;;3.20;;
56770;SDS011;42641;59.794;17.616;2023-05-10T07:20:06;3.73;;;3.03;;
56770;SDS011;42641;59.794;17.616;2023-05-10T07:22:33;5.13;;;3.50;;
56770;SDS011;42641;59.794;17.616;2023-05-10T07:24:59;4.87;;;2.97;;
56770;SDS011;42641;59.794;17.616;2023-05-10T07:27:25;3.57;;;3.27;;
56770;SDS011;42641;59.794;17.616;2023-05-10T07:29:52;5.27;;;3.10;;
56770;SDS011;42641;59.794;17.616;2023-05-10T07:32:18;3.47;;;3.17;;
56770;SDS011;42641;59.794;17.616;2023-05-10T07:34:45;6.50;;;3.27;;
56770;SDS011;42641;59.794;17.616;2023-05-10T07:37:11;5.87;;;3.40;;
56770;SDS011;42641;59.794;17.616;2023-05-10T07:39:38;6.18;;;3.17;;
56770;SDS011;42641;59.794;17.616;2023-05-10T07:42:04;7.95;;;3.67;;
56770;SDS011;42641;59.794;17.616;2023-05-10T07:44:31;4.03;;;2.92;;
56770;SDS011;42641;59.794;17.616;2023-05-10T07:46:57;4.03;;;3.10;;
56770;SDS011;42641;59.794;17.616;2023-05-10T07:49:24;4.15;;;3.17;;
56770;SDS011;42641;59.794;17.616;2023-05-10T07:51:51;3.83;;;3.42;;
56770;SDS011;42641;59.794;17.616;2023-05-10T07:54:17;4.53;;;3.00;;
56770;SDS011;42641;59.794;17.616;2023-05-10T07:56:44;4.03;;;3.25;;
56770;SDS011;42641;59.794;17.616;2023-05-10T07:59:16;4.75;;;3.30;;
56770;SDS011;42641;59.794;17.616;2023-05-10T08:01:43;3.30;;;2.90;;
56770;SDS011;42641;59.794;17.616;2023-05-10T08:04:09;6.25;;;3.25;;
56770;SDS011;42641;59.794;17.616;2023-05-10T08:06:37;9.70;;;3.30;;
56770;SDS011;42641;59.794;17.616;2023-05-10T08:09:03;4.65;;;3.20;;
56770;SDS011;42641;59.794;17.616;2023-05-10T08:11:30;4.85;;;3.50;;
56770;SDS011;42641;59.794;17.616;2023-05-10T08:13:56;4.15;;;3.03;;
56770;SDS011;42641;59.794;17.616;2023-05-10T08:16:23;3.85;;;3.28;;
56770;SDS011;42641;59.794;17.616;2023-05-10T08:18:50;3.50;;;3.10;;
56770;SDS011;42641;59.794;17.616;2023-05-10T08:21:17;7.70;;;3.45;;
56770;SDS011;42641;59.794;17.616;2023-05-10T08:23:43;5.15;;;3.45;;
56770;SDS011;42641;59.794;17.616;2023-05-10T08:26:10;8.05;;;4.20;;
56770;SDS011;42641;59.794;17.616;2023-05-10T08:28:36;5.03;;;2.70;;
56770;SDS011;42641;59.794;17.616;2023-05-10T08:31:04;6.72;;;3.00;;
56770;SDS011;42641;59.794;17.616;2023-05-10T08:33:30;5.03;;;3.05;;
56770;SDS011;42641;59.794;17.616;2023-05-10T08:35:57;5.00;;;3.03;;
56770;SDS011;42641;59.794;17.616;2023-05-10T08:38:23;6.28;;;2.90;;
56770;SDS011;42641;59.794;17.616;2023-05-10T08:40:50;5.22;;;3.00;;
56770;SDS011;42641;59.794;17.616;2023-05-10T08:43:27;5.93;;;3.20;;
56770;SDS011;42641;59.794;17.616;2023-05-10T08:45:59;4.47;;;3.13;;
56770;SDS011;42641;59.794;17.616;2023-05-10T08:48:29;3.42;;;2.95;;
56770;SDS011;42641;59.794;17.616;2023-05-10T08:50:57;8.48;;;3.20;;
56770;SDS011;42641;59.794;17.616;2023-05-10T08:53:25;3.22;;;2.92;;
56770;SDS011;42641;59.794;17.616;2023-05-10T08:55:54;4.82;;;3.20;;
56770;SDS011;42641;59.794;17.616;2023-05-10T08:58:21;5.13;;;3.25;;
56770;SDS011;42641;59.794;17.616;2023-05-10T09:00:48;6.50;;;2.90;;
56770;SDS011;42641;59.794;17.616;2023-05-10T09:03:18;7.03;;;3.20;;
56770;SDS011;42641;59.794;17.616;2023-05-10T09:05:45;5.03;;;3.05;;
56770;SDS011;42641;59.794;17.616;2023-05-10T09:08:12;5.63;;;2.92;;
56770;SDS011;42641;59.794;17.616;2023-05-10T09:10:42;6.35;;;3.05;;
56770;SDS011;42641;59.794;17.616;2023-05-10T09:13:13;3.88;;;3.10;;
56770;SDS011;42641;59.794;17.616;2023-05-10T09:15:41;4.65;;;2.90;;
56770;SDS011;42641;59.794;17.616;2023-05-10T09:18:07;5.53;;;2.95;;
56770;SDS011;42641;59.794;17.616;2023-05-10T09:20:34;5.03;;;2.90;;
56770;SDS011;42641;59.794;17.616;2023-05-10T09:23:00;4.85;;;3.00;;
56770;SDS011;42641;59.794;17.616;2023-05-10T09:25:27;3.30;;;3.00;;
56770;SDS011;42641;59.794;17.616;2023-05-10T09:27:53;4.20;;;2.60;;
56770;SDS011;42641;59.794;17.616;2023-05-10T09:30:24;4.72;;;2.85;;
56770;SDS011;42641;59.794;17.616;2023-05-10T09:32:55;4.05;;;2.80;;
56770;SDS011;42641;59.794;17.616;2023-05-10T09:35:24;4.18;;;2.90;;
56770;SDS011;42641;59.794;17.616;2023-05-10T09:37:53;4.90;;;2.58;;
56770;SDS011;42641;59.794;17.616;2023-05-10T09:40:25;8.07;;;3.05;;
56770;SDS011;42641;59.794;17.616;2023-05-10T09:43:03;3.65;;;2.80;;
56770;SDS011;42641;59.794;17.616;2023-05-10T09:45:32;4.63;;;2.85;;
56770;SDS011;42641;59.794;17.616;2023-05-10T09:48:00;4.72;;;2.70;;
56770;SDS011;42641;59.794;17.616;2023-05-10T09:50:28;3.55;;;2.92;;
56770;SDS011;42641;59.794;17.616;2023-05-10T09:52:56;4.90;;;2.67;;
56770;SDS011;42641;59.794;17.616;2023-05-10T09:55:26;5.47;;;2.90;;
56770;SDS011;42641;59.794;17.616;2023-05-10T09:58:05;5.47;;;3.30;;
56770;SDS011;42641;59.794;17.616;2023-05-10T10:00:36;4.40;;;2.50;;
56770;SDS011;42641;59.794;17.616;2023-05-10T10:03:11;3.35;;;2.85;;
56770;SDS011;42641;59.794;17.616;2023-05-10T10:05:42;3.38;;;3.03;;
56770;SDS011;42641;59.794;17.616;2023-05-10T10:08:10;4.75;;;2.90;;
56770;SDS011;42641;59.794;17.616;2023-05-10T10:10:37;4.40;;;2.42;;
56770;SDS011;42641;59.794;17.616;2023-05-10T10:13:06;4.07;;;2.58;;
56770;SDS011;42641;59.794;17.616;2023-05-10T10:15:33;5.60;;;2.72;;
56770;SDS011;42641;59.794;17.616;2023-05-10T10:18:00;6.22;;;2.95;;
56770;SDS011;42641;59.794;17.616;2023-05-10T10:20:29;3.58;;;2.67;;
56770;SDS011;42641;59.794;17.616;2023-05-10T10:22:55;5.82;;;3.38;;
56770;SDS011;42641;59.794;17.616;2023-05-10T10:25:22;5.20;;;3.47;;
56770;SDS011;42641;59.794;17.616;2023-05-10T10:36:08;3.10;;;2.60;;
56770;SDS011;42641;59.794;17.616;2023-05-10T10:38:35;6.45;;;2.75;;
56770;SDS011;42641;59.794;17.616;2023-05-10T10:41:27;5.50;;;2.70;;
56770;SDS011;42641;59.794;17.616;2023-05-10T10:49:24;6.43;;;2.90;;
56770;SDS011;42641;59.794;17.616;2023-05-10T10:54:58;5.18;;;3.30;;
56770;SDS011;42641;59.794;17.616;2023-05-10T10:57:27;5.13;;;2.78;;
56770;SDS011;42641;59.794;17.616;2023-05-10T11:03:05;5.30;;;2.83;;
56770;SDS011;42641;59.794;17.616;2023-05-10T11:05:35;2.97;;;2.67;;
56770;SDS011;42641;59.794;17.616;2023-05-10T11:08:15;4.38;;;2.58;;
56770;SDS011;42641;59.794;17.616;2023-05-10T11:10:52;3.00;;;2.70;;
56770;SDS011;42641;59.794;17.616;2023-05-10T11:13:39;7.45;;;2.80;;
56770;SDS011;42641;59.794;17.616;2023-05-10T11:16:14;5.55;;;2.65;;
56770;SDS011;42641;59.794;17.616;2023-05-10T11:18:57;4.32;;;2.92;;
56770;SDS011;42641;59.794;17.616;2023-05-10T11:21:29;3.65;;;2.50;;
56770;SDS011;42641;59.794;17.616;2023-05-10T11:23:57;7.60;;;2.78;;
56770;SDS011;42641;59.794;17.616;2023-05-10T11:26:25;4.05;;;2.30;;
56770;SDS011;42641;59.794;17.616;2023-05-10T11:28:56;5.97;;;2.67;;
56770;SDS011;42641;59.794;17.616;2023-05-10T11:31:25;6.18;;;2.50;;
56770;SDS011;42641;59.794;17.616;2023-05-10T11:33:53;4.80;;;2.65;;
56770;SDS011;42641;59.794;17.616;2023-05-10T11:36:23;3.50;;;2.90;;
56770;SDS011;42641;59.794;17.616;2023-05-10T11:38:51;4.65;;;2.55;;
56770;SDS011;42641;59.794;17.616;2023-05-10T11:41:19;3.00;;;2.40;;
56770;SDS011;42641;59.794;17.616;2023-05-10T11:43:50;5.45;;;2.95;;
56770;SDS011;42641;59.794;17.616;2023-05-10T11:46:18;5.45;;;2.50;;
56770;SDS011;42641;59.794;17.616;2023-05-10T11:48:46;4.30;;;2.92;;
56770;SDS011;42641;59.794;17.616;2023-05-10T11:51:24;8.95;;;3.03;;
56770;SDS011;42641;59.794;17.616;2023-05-10T11:53:52;5.15;;;2.63;;
56770;SDS011;42641;59.794;17.616;2023-05-10T11:56:20;5.88;;;2.50;;
56770;SDS011;42641;59.794;17.616;2023-05-10T11:58:54;6.50;;;2.72;;
56770;SDS011;42641;59.794;17.616;2023-05-10T12:01:21;3.33;;;2.40;;
56770;SDS011;42641;59.794;17.616;2023-05-10T12:03:49;2.65;;;2.45;;
56770;SDS011;42641;59.794;17.616;2023-05-10T12:06:17;3.78;;;2.72;;
56770;SDS011;42641;59.794;17.616;2023-05-10T12:08:46;3.00;;;2.70;;
56770;SDS011;42641;59.794;17.616;2023-05-10T12:11:13;4.65;;;2.42;;
56770;SDS011;42641;59.794;17.616;2023-05-10T12:13:43;5.45;;;2.30;;
56770;SDS011;42641;59.794;17.616;2023-05-10T12:16:18;5.88;;;2.65;;
56770;SDS011;42641;59.794;17.616;2023-05-10T12:18:49;5.60;;;2.70;;
56770;SDS011;42641;59.794;17.616;2023-05-10T12:21:18;4.95;;;2.60;;
56770;SDS011;42641;59.794;17.616;2023-05-10T12:23:46;7.50;;;2.40;;
56770;SDS011;42641;59.794;17.616;2023-05-10T12:26:17;8.25;;;2.95;;
56770;SDS011;42641;59.794;17.616;2023-05-10T12:28:47;4.07;;;2.33;;
56770;SDS011;42641;59.794;17.616;2023-05-10T12:31:13;4.40;;;2.60;;
56770;SDS011;42641;59.794;17.616;2023-05-10T12:33:41;8.07;;;2.83;;
56770;SDS011;42641;59.794;17.616;2023-05-10T12:36:09;3.90;;;2.55;;
56770;SDS011;42641;59.794;17.616;2023-05-10T12:38:41;6.47;;;2.60;;
56770;SDS011;42641;59.794;17.616;2023-05-10T12:41:09;5.35;;;2.80;;
56770;SDS011;42641;59.794;17.616;2023-05-10T12:43:37;6.35;;;2.40;;
56770;SDS011;42641;59.794;17.616;2023-05-10T12:46:08;4.63;;;2.55;;
56770;SDS011;42641;59.794;17.616;2023-05-10T12:48:39;3.33;;;2.38;;
56770;SDS011;42641;59.794;17.616;2023-05-10T12:51:07;5.00;;;2.50;;
56770;SDS011;42641;59.794;17.616;2023-05-10T12:53:35;4.55;;;2.40;;
56770;SDS011;42641;59.794;17.616;2023-05-10T12:56:02;4.88;;;2.45;;
56770;SDS011;42641;59.794;17.616;2023-05-10T12:58:29;6.95;;;2.58;;
56770;SDS011;42641;59.794;17.616;2023-05-10T13:00:55;3.65;;;2.53;;
56770;SDS011;42641;59.794;17.616;2023-05-10T13:03:22;2.80;;;2.40;;
56770;SDS011;42641;59.794;17.616;2023-05-10T13:05:49;2.92;;;2.55;;
56770;SDS011;42641;59.794;17.616;2023-05-10T13:08:15;2.95;;;2.42;;
56770;SDS011;42641;59.794;17.616;2023-05-10T13:10:43;4.18;;;2.47;;
56770;SDS011;42641;59.794;17.616;2023-05-10T13:13:10;4.95;;;3.15;;
56770;SDS011;42641;59.794;17.616;2023-05-10T13:15:36;6.55;;;2.75;;
56770;SDS011;42641;59.794;17.616;2023-05-10T13:18:03;4.15;;;2.22;;
56770;SDS011;42641;59.794;17.616;2023-05-10T13:20:29;4.20;;;2.13;;
56770;SDS011;42641;59.794;17.616;2023-05-10T13:22:55;4.45;;;2.50;;
56770;SDS011;42641;59.794;17.616;2023-05-10T13:25:22;11.70;;;2.50;;
56770;SDS011;42641;59.794;17.616;2023-05-10T13:27:49;7.72;;;2.83;;
56770;SDS011;42641;59.794;17.616;2023-05-10T13:30:15;3.20;;;2.42;;
56770;SDS011;42641;59.794;17.616;2023-05-10T13:32:42;4.93;;;2.90;;
56770;SDS011;42641;59.794;17.616;2023-05-10T13:35:08;4.43;;;2.28;;
56770;SDS011;42641;59.794;17.616;2023-05-10T13:37:35;3.50;;;2.13;;
56770;SDS011;42641;59.794;17.616;2023-05-10T13:40:03;11.88;;;2.95;;
56770;SDS011;42641;59.794;17.616;2023-05-10T13:42:31;4.97;;;2.30;;
56770;SDS011;42641;59.794;17.616;2023-05-10T13:44:59;4.53;;;2.70;;
56770;SDS011;42641;59.794;17.616;2023-05-10T13:47:27;6.53;;;2.50;;
56770;SDS011;42641;59.794;17.616;2023-05-10T13:49:54;4.88;;;2.45;;
56770;SDS011;42641;59.794;17.616;2023-05-10T13:52:21;6.35;;;2.25;;
56770;SDS011;42641;59.794;17.616;2023-05-10T13:54:47;10.32;;;2.85;;
56770;SDS011;42641;59.794;17.616;2023-05-10T13:57:13;2.78;;;2.50;;
56770;SDS011;42641;59.794;17.616;2023-05-10T13:59:42;3.35;;;2.28;;
56770;SDS011;42641;59.794;17.616;2023-05-10T14:02:08;3.20;;;2.20;;
56770;SDS011;42641;59.794;17.616;2023-05-10T14:04:35;7.53;;;2.45;;
56770;SDS011;42641;59.794;17.616;2023-05-10T14:07:01;5.22;;;2.40;;
56770;SDS011;42641;59.794;17.616;2023-05-10T14:09:27;2.30;;;2.10;;
56770;SDS011;42641;59.794;17.616;2023-05-10T14:11:54;2.50;;;2.13;;
56770;SDS011;42641;59.794;17.616;2023-05-10T14:14:21;6.15;;;2.40;;
56770;SDS011;42641;59.794;17.616;2023-05-10T14:16:47;6.35;;;2.35;;
56770;SDS011;42641;59.794;17.616;2023-05-10T14:19:14;3.78;;;2.20;;
56770;SDS011;42641;59.794;17.616;2023-05-10T14:21:40;5.38;;;2.50;;
56770;SDS011;42641;59.794;17.616;2023-05-10T14:24:07;6.57;;;2.50;;
56770;SDS011;42641;59.794;17.616;2023-05-10T14:26:33;3.53;;;2.28;;
56770;SDS011;42641;59.794;17.616;2023-05-10T14:29:00;2.50;;;2.30;;
56770;SDS011;42641;59.794;17.616;2023-05-10T14:31:27;5.95;;;2.28;;
56770;SDS011;42641;59.794;17.616;2023-05-10T14:33:55;5.65;;;2.47;;
56770;SDS011;42641;59.794;17.616;2023-05-10T14:36:23;5.60;;;2.28;;
56770;SDS011;42641;59.794;17.616;2023-05-10T14:38:49;3.35;;;1.90;;
56770;SDS011;42641;59.794;17.616;2023-05-10T14:41:16;3.35;;;2.05;;
56770;SDS011;42641;59.794;17.616;2023-05-10T14:43:43;3.08;;;2.20;;
56770;SDS011;42641;59.794;17.616;2023-05-10T14:46:10;3.40;;;2.42;;
56770;SDS011;42641;59.794;17.616;2023-05-10T14:48:36;3.20;;;2.17;;
56770;SDS011;42641;59.794;17.616;2023-05-10T14:51:03;2.95;;;2.05;;
56770;SDS011;42641;59.794;17.616;2023-05-10T14:53:29;2.88;;;2.20;;
56770;SDS011;42641;59.794;17.616;2023-05-10T14:55:56;4.10;;;2.58;;
56770;SDS011;42641;59.794;17.616;2023-05-10T14:58:23;4.38;;;2.47;;
56770;SDS011;42641;59.794;17.616;2023-05-10T15:00:49;4.90;;;2.22;;
56770;SDS011;42641;59.794;17.616;2023-05-10T15:03:16;4.22;;;2.58;;
56770;SDS011;42641;59.794;17.616;2023-05-10T15:05:42;3.05;;;2.30;;
56770;SDS011;42641;59.794;17.616;2023-05-10T15:08:09;4.07;;;2.35;;
56770;SDS011;42641;59.794;17.616;2023-05-10T15:10:35;3.55;;;2.45;;
56770;SDS011;42641;59.794;17.616;2023-05-10T15:13:03;3.60;;;2.30;;
56770;SDS011;42641;59.794;17.616;2023-05-10T15:15:29;2.30;;;2.10;;
56770;SDS011;42641;59.794;17.616;2023-05-10T15:17:56;5.55;;;2.50;;
56770;SDS011;42641;59.794;17.616;2023-05-10T15:20:22;3.08;;;2.10;;